Shebandowan, Canada
Current Conditions -  °F | °C
As of 4:00 PM on Thursday 27 Nov 2014 (Local Time) from CYQT Reporting Station
Scattered Clouds Scattered Clouds  
Wind Chill: -6°   Ceiling: Unl
Heat Index:   Visibility: 20mi
Dew Point: -8°   Wind: 6mph
Humidity: 56%   Direction: 310°NW
Pressure: 30.38"   Gusts: NA
Location:  48.63°N, 90.07°W
Report Text: CYQT 272200Z 31005KT 20SM FEW020 SCT250 M15/M22 A3038 RMK ST1CI2 SLP310
Loading
Personal Weather Stations






























Interactive Weather Map New forecast layout! Learn more

10-Day Weather Forecast

Advertisements
Track Severe Weather on mobile